Time;durP1;ratioP1;P1;durP2;ratioP2;P2;SDS_P1;SDS_P2;PMS_P1;PMS_P2;Temp;Humidity;BMP_temperature;BMP_pressure;BME280_temperature;BME280_humidity;BME280_pressure;Samples;Min_cycle;Max_cycle;Signal;HPM_P1;HPM_P2
2022/08/07 00:01:16;;;;;;;9.32;8.30;;;;;;;21.16;77.16;94753.28;5064703;28;20055;-68
2022/08/07 00:04:04;;;;;;;9.68;8.40;;;;;;;21.12;77.30;94747.81;5066841;28;20033;-68
2022/08/07 00:06:35;;;;;;;9.93;7.15;;;;;;;21.04;77.28;94743.22;5065922;28;20075;-67
2022/08/07 00:09:06;;;;;;;9.05;7.80;;;;;;;21.11;77.70;94756.03;5066476;28;20482;-67
2022/08/07 00:11:43;;;;;;;10.48;7.22;;;;;;;20.97;78.94;94750.78;5076685;28;20044;-67
2022/08/07 00:14:22;;;;;;;10.65;7.68;;;;;;;20.85;79.16;94758.44;5067442;28;20052;-67
2022/08/07 00:16:57;;;;;;;9.13;7.88;;;;;;;20.80;78.55;94762.00;5066095;28;20059;-67
2022/08/07 00:19:24;;;;;;;10.02;8.00;;;;;;;20.76;78.86;94761.81;5063225;28;20139;-67
2022/08/07 00:21:54;;;;;;;9.18;7.88;;;;;;;20.74;79.05;94763.97;5059194;28;20044;-67
2022/08/07 00:24:29;;;;;;;15.18;7.47;;;;;;;20.66;79.91;94766.53;5064362;28;20072;-67
2022/08/07 00:26:57;;;;;;;11.52;7.50;;;;;;;20.62;79.62;94755.75;5064299;28;20055;-67
2022/08/07 00:29:33;;;;;;;9.43;7.45;;;;;;;20.59;80.08;94757.09;5068923;28;20649;-67
2022/08/07 00:32:05;;;;;;;13.00;8.43;;;;;;;20.64;79.94;94761.53;5070195;28;20044;-66
2022/08/07 00:34:32;;;;;;;11.65;8.02;;;;;;;20.63;80.37;94754.66;5070550;28;20046;-66
2022/08/07 00:37:02;;;;;;;11.75;8.18;;;;;;;20.60;80.13;94747.31;5099370;27;20143;-67
2022/08/07 00:39:34;;;;;;;10.35;7.20;;;;;;;20.61;79.95;94757.59;5071288;28;20993;-67
2022/08/07 00:42:02;;;;;;;10.05;7.80;;;;;;;20.59;79.72;94757.09;5071624;28;20672;-67
2022/08/07 00:44:32;;;;;;;9.88;8.02;;;;;;;20.63;79.70;94757.31;5071062;28;20083;-67
2022/08/07 00:47:00;;;;;;;9.48;7.22;;;;;;;20.62;79.08;94761.03;5064272;28;20780;-67
2022/08/07 00:49:27;;;;;;;11.20;8.30;;;;;;;20.64;79.55;94758.88;5068654;28;20449;-66
2022/08/07 00:52:15;;;;;;;9.55;7.28;;;;;;;20.68;79.84;94759.84;5061645;28;20040;-67
2022/08/07 00:54:45;;;;;;;9.23;7.78;;;;;;;20.58;80.34;94760.03;5066892;28;20036;-66
2022/08/07 00:57:21;;;;;;;10.02;8.07;;;;;;;20.50;80.38;94764.16;5067251;28;20044;-67
2022/08/07 00:59:51;;;;;;;9.80;7.75;;;;;;;20.48;81.16;94760.25;5050560;28;20427;-67
2022/08/07 01:02:20;;;;;;;10.10;7.28;;;;;;;20.49;81.12;94743.28;5071618;28;20051;-67
2022/08/07 01:04:56;;;;;;;13.80;8.60;;;;;;;20.48;81.54;94749.66;5065616;28;20071;-67
2022/08/07 01:07:26;;;;;;;9.60;7.88;;;;;;;20.40;82.22;94741.34;5071827;28;20039;-67
2022/08/07 01:09:55;;;;;;;9.35;8.15;;;;;;;20.29;82.67;94757.69;5061442;28;20041;-67
2022/08/07 01:12:40;;;;;;;9.43;7.05;;;;;;;20.20;82.95;94754.94;5065356;28;20841;-67
2022/08/07 01:15:24;;;;;;;10.75;7.07;;;;;;;20.21;82.35;94751.22;5095581;27;20051;-67
2022/08/07 01:18:12;;;;;;;9.30;6.85;;;;;;;20.27;82.34;94755.34;5060946;28;20039;-67
2022/08/07 01:20:52;;;;;;;9.48;7.75;;;;;;;20.27;82.69;94750.03;5063968;28;20329;-67
2022/08/07 01:23:29;;;;;;;9.43;7.60;;;;;;;20.30;82.15;94751.34;5070635;28;20044;-67
2022/08/07 01:26:14;;;;;;;12.55;7.60;;;;;;;20.33;82.22;94748.88;5069974;28;20121;-66
2022/08/07 01:28:47;;;;;;;10.07;7.00;;;;;;;20.34;82.67;94750.44;5063747;28;20090;-66
2022/08/07 01:31:26;;;;;;;10.30;7.22;;;;;;;20.38;82.48;94751.44;5100799;27;20056;-67
2022/08/07 01:34:08;;;;;;;8.25;7.10;;;;;;;20.40;82.83;94759.84;5065908;28;20040;-66
2022/08/07 01:36:39;;;;;;;9.98;7.75;;;;;;;20.34;83.07;94766.31;5073897;28;20036;-66
2022/08/07 01:39:13;;;;;;;;;;;;;;;20.32;83.85;94784.31;5066573;28;20047;-67
2022/08/07 01:41:45;;;;;;;13.05;7.28;;;;;;;20.20;84.09;94789.31;5066416;28;19920;-67
2022/08/07 01:44:33;;;;;;;8.50;6.18;;;;;;;20.31;83.00;94809.22;5071105;28;20112;-67
2022/08/07 01:47:01;;;;;;;8.57;6.38;;;;;;;20.56;80.92;94825.69;5058141;28;20040;-67
2022/08/07 01:49:49;;;;;;;6.95;5.45;;;;;;;21.23;77.47;94821.72;5066536;28;20322;-67
2022/08/07 01:52:25;;;;;;;8.27;5.75;;;;;;;21.61;76.58;94824.06;5062864;28;20079;-67
2022/08/07 01:54:55;;;;;;;8.98;6.65;;;;;;;21.89;76.88;94812.25;5068862;28;20040;-68
2022/08/07 01:57:31;;;;;;;;;;;;;;;22.10;77.93;94822.38;5069848;28;20058;-67
2022/08/07 02:00:12;;;;;;;8.63;6.20;;;;;;;22.01;80.91;94805.63;5063140;28;19928;-67
2022/08/07 02:02:51;;;;;;;9.38;6.90;;;;;;;21.84;85.51;94820.34;5047444;28;20129;-66
2022/08/07 02:06:01;;;;;;;8.15;6.55;;;;;;;21.51;92.20;94828.53;5065657;28;20048;-67
2022/08/07 02:08:39;;;;;;;14.30;8.05;;;;;;;21.25;97.61;94815.03;5097269;27;20039;-67
2022/08/07 02:11:10;;;;;;;12.77;8.13;;;;;;;21.16;100.00;94817.63;5095686;27;20048;-67
2022/08/07 02:13:59;;;;;;;17.63;7.63;;;;;;;20.95;100.00;94816.47;5052891;28;20097;-67
2022/08/07 02:16:31;;;;;;;10.40;8.65;;;;;;;20.75;100.00;94809.75;5063294;28;20059;-67
2022/08/07 02:19:03;;;;;;;13.55;8.07;;;;;;;20.65;100.00;94802.78;5056910;28;20125;-67
2022/08/07 02:21:53;;;;;;;12.30;7.03;;;;;;;20.56;100.00;94799.22;5063355;28;20035;-67
2022/08/07 02:24:26;;;;;;;9.70;7.85;;;;;;;20.51;100.00;94786.88;5062351;28;20119;-67
2022/08/07 02:26:58;;;;;;;10.52;7.88;;;;;;;20.54;100.00;94785.50;5064418;28;20048;-67
2022/08/07 02:29:29;;;;;;;9.90;7.90;;;;;;;20.57;100.00;94784.94;5050307;28;20109;-67
2022/08/07 02:31:59;;;;;;;13.02;8.55;;;;;;;20.60;100.00;94768.47;5060365;28;20082;-67
2022/08/07 02:34:27;;;;;;;10.88;7.75;;;;;;;20.67;100.00;94768.09;5064142;28;20522;-67
2022/08/07 02:37:00;;;;;;;11.25;8.18;;;;;;;20.69;100.00;94757.97;5068142;28;20115;-67
2022/08/07 02:39:39;;;;;;;13.30;9.18;;;;;;;20.81;100.00;94761.72;5067364;28;20541;-67
2022/08/07 02:42:31;;;;;;;15.05;9.30;;;;;;;20.80;100.00;94757.47;5067313;28;20040;-67
2022/08/07 02:45:01;;;;;;;10.32;8.40;;;;;;;20.74;100.00;94758.69;5059973;28;20049;-67
2022/08/07 02:47:48;;;;;;;15.13;8.45;;;;;;;20.70;100.00;94772.78;5068458;28;20048;-67
2022/08/07 02:50:18;;;;;;;18.35;9.00;;;;;;;20.69;100.00;94777.31;5067366;28;20051;-67
2022/08/07 02:53:04;;;;;;;16.40;9.40;;;;;;;20.53;100.00;94789.25;5067178;28;20083;-67
2022/08/07 02:55:42;;;;;;;11.65;8.68;;;;;;;20.48;100.00;94786.69;5056690;28;20118;-66
2022/08/07 02:58:30;;;;;;;10.77;8.63;;;;;;;20.40;100.00;94796.09;5062897;28;20051;-67
2022/08/07 03:01:01;;;;;;;11.57;9.63;;;;;;;20.21;100.00;94782.97;5065039;28;20051;-68
2022/08/07 03:03:32;;;;;;;11.60;8.45;;;;;;;20.17;100.00;94793.34;5061737;28;20056;-67
2022/08/07 03:06:22;;;;;;;16.40;9.25;;;;;;;19.89;100.00;94792.50;5066848;28;20129;-67
2022/08/07 03:09:01;;;;;;;11.73;8.13;;;;;;;19.71;100.00;94795.94;5059084;28;20044;-67
2022/08/07 03:11:29;;;;;;;12.38;9.68;;;;;;;19.51;100.00;94787.25;5043747;28;20813;-68
2022/08/07 03:14:05;;;;;;;11.77;9.05;;;;;;;19.51;100.00;94792.53;5043546;28;20131;-67
2022/08/07 03:16:33;;;;;;;13.07;9.55;;;;;;;19.46;100.00;94789.97;5061064;28;20871;-67
2022/08/07 03:19:01;;;;;;;12.55;9.52;;;;;;;19.48;100.00;94785.19;5043055;28;20155;-67
2022/08/07 03:21:31;;;;;;;11.70;9.07;;;;;;;19.46;100.00;94784.69;5082204;28;20083;-67
2022/08/07 03:24:00;;;;;;;11.57;9.45;;;;;;;19.54;100.00;94786.69;5065983;28;20117;-67
2022/08/07 03:26:50;;;;;;;14.18;9.70;;;;;;;19.62;100.00;94795.81;5043039;28;20045;-69
2022/08/07 03:29:44;;;;;;;12.63;9.68;;;;;;;19.74;100.00;94795.41;5084780;28;20613;-68
2022/08/07 03:32:21;;;;;;;17.50;8.95;;;;;;;19.60;100.00;94764.41;5058547;28;20065;-68
2022/08/07 03:34:56;;;;;;;13.88;9.52;;;;;;;19.83;100.00;94798.94;5056666;28;20048;-68
2022/08/07 03:37:47;;;;;;;11.65;9.93;;;;;;;19.86;100.00;94801.00;5061379;28;20117;-68
2022/08/07 03:40:24;;;;;;;16.15;9.98;;;;;;;19.82;100.00;94797.38;5064856;28;20048;-67
2022/08/07 03:42:59;;;;;;;12.52;10.73;;;;;;;19.77;100.00;94800.91;5065240;28;20044;-68
2022/08/07 03:45:28;;;;;;;11.60;9.93;;;;;;;19.80;100.00;94802.16;5069329;28;20044;-69
2022/08/07 03:48:05;;;;;;;15.60;11.10;;;;;;;19.80;100.00;94788.94;5054713;28;20748;-68
2022/08/07 03:50:38;;;;;;;15.32;11.18;;;;;;;19.85;100.00;94791.50;5070139;28;20131;-68
2022/08/07 03:53:10;;;;;;;13.02;10.40;;;;;;;19.91;100.00;94792.97;5066011;28;20783;-68
2022/08/07 03:55:39;;;;;;;13.48;9.93;;;;;;;20.00;100.00;94785.94;5067365;28;20513;-68
2022/08/07 03:58:25;;;;;;;16.05;10.15;;;;;;;20.13;100.00;94786.25;5071135;28;20048;-69
2022/08/07 04:01:13;;;;;;;12.07;10.18;;;;;;;20.23;100.00;94780.81;5071060;28;20052;-66
2022/08/07 04:03:43;;;;;;;14.07;9.82;;;;;;;20.32;100.00;94789.63;5076897;28;20051;-68
2022/08/07 04:06:22;;;;;;;13.00;8.65;;;;;;;20.40;100.00;94783.66;5080098;28;20493;-67
2022/08/07 04:09:11;;;;;;;17.88;9.45;;;;;;;20.62;100.00;94792.78;5112120;27;20804;-67
2022/08/07 04:11:44;;;;;;;14.40;8.45;;;;;;;20.80;100.00;94793.75;5072128;28;20178;-67
2022/08/07 04:14:34;;;;;;;11.77;8.70;;;;;;;20.92;100.00;94794.03;5071731;28;20050;-68
2022/08/07 04:17:07;;;;;;;12.93;8.33;;;;;;;21.08;100.00;94791.06;5070153;28;20062;-69
2022/08/07 04:19:50;;;;;;;11.52;8.60;;;;;;;21.17;100.00;94791.91;5069837;28;20050;-68
2022/08/07 04:22:26;;;;;;;15.38;9.80;;;;;;;21.33;100.00;94805.59;5070666;28;20113;-67
2022/08/07 04:25:00;;;;;;;18.20;8.82;;;;;;;21.45;100.00;94803.25;5064181;28;20615;-67
2022/08/07 04:27:30;;;;;;;14.93;9.57;;;;;;;21.53;100.00;94799.84;5069210;28;20044;-67
2022/08/07 04:30:09;;;;;;;14.13;9.60;;;;;;;21.68;100.00;94800.56;5068662;28;21299;-68
2022/08/07 04:33:04;;;;;;;10.52;9.15;;;;;;;21.83;100.00;94808.19;5073574;28;20063;-67
2022/08/07 04:35:36;;;;;;;10.13;8.10;;;;;;;21.92;100.00;94806.34;5065126;28;20040;-68
2022/08/07 04:38:09;;;;;;;11.68;9.07;;;;;;;22.06;100.00;94805.50;5067176;28;20051;-67
2022/08/07 04:40:43;;;;;;;17.92;8.32;;;;;;;22.21;100.00;94818.38;5064292;28;20048;-67
2022/08/07 04:43:40;;;;;;;13.88;6.85;;;;;;;22.37;100.00;94820.66;5066927;28;20059;-68
2022/08/07 04:46:46;;;;;;;11.88;7.13;;;;;;;22.56;100.00;94826.50;5061488;28;20040;-68
2022/08/07 04:50:00;;;;;;;11.93;7.97;;;;;;;22.66;100.00;94830.75;5064083;28;20209;-68
2022/08/07 04:52:37;;;;;;;9.88;8.05;;;;;;;22.70;100.00;94827.16;5056912;28;20675;-68
2022/08/07 04:55:52;;;;;;;10.70;7.55;;;;;;;22.85;100.00;94830.50;5060355;28;20051;-68
2022/08/07 04:59:03;;;;;;;15.90;10.63;;;;;;;22.88;100.00;94835.19;5086696;27;20602;-68
2022/08/07 05:02:34;;;;;;;17.17;11.38;;;;;;;22.98;100.00;94840.22;5059400;28;20041;-69
2022/08/07 05:05:08;;;;;;;11.48;7.40;;;;;;;23.05;100.00;94840.56;5036507;28;20060;-68
2022/08/07 05:08:01;;;;;;;7.75;6.45;;;;;;;23.13;99.27;94846.22;5101365;27;20046;-68
2022/08/07 05:10:44;;;;;;;8.13;7.20;;;;;;;23.28;98.36;94851.06;5064176;28;20068;-68
2022/08/07 05:13:18;;;;;;;8.07;7.28;;;;;;;23.35;97.57;94859.38;5047266;28;20766;-68
2022/08/07 05:16:08;;;;;;;11.20;7.35;;;;;;;23.52;96.86;94857.84;5068226;28;20553;-69
2022/08/07 05:18:43;;;;;;;8.90;7.35;;;;;;;23.64;97.01;94860.63;5065998;28;20136;-69
2022/08/07 05:21:13;;;;;;;8.98;7.05;;;;;;;23.62;93.09;94865.47;5064312;28;20134;-69
2022/08/07 05:23:48;;;;;;;10.77;6.50;;;;;;;23.71;92.85;94870.81;5064019;28;20052;-69
2022/08/07 05:26:21;;;;;;;11.05;6.90;;;;;;;23.82;92.90;94872.88;5064564;28;20426;-69
2022/08/07 05:29:01;;;;;;;11.25;7.40;;;;;;;23.84;95.76;94881.31;5062575;28;20131;-69
2022/08/07 05:31:37;;;;;;;11.43;7.30;;;;;;;23.92;95.71;94873.66;5067886;28;20048;-69
2022/08/07 05:34:14;;;;;;;10.00;7.18;;;;;;;23.76;96.62;94874.09;5062811;28;20151;-68
2022/08/07 05:36:49;;;;;;;10.73;6.78;;;;;;;23.63;93.83;94869.72;5068903;28;20040;-69
2022/08/07 05:39:45;;;;;;;9.95;7.68;;;;;;;23.80;94.32;94869.72;5062558;28;20051;-69
2022/08/07 05:42:34;;;;;;;9.68;7.88;;;;;;;23.91;95.18;94880.06;5066458;28;20036;-69
2022/08/07 05:45:09;;;;;;;10.60;7.35;;;;;;;23.97;95.42;94876.16;5066483;28;20176;-69
2022/08/07 05:47:55;;;;;;;9.02;7.18;;;;;;;24.03;93.23;94873.00;5072183;28;20052;-69
2022/08/07 05:50:35;;;;;;;9.30;7.05;;;;;;;24.17;93.13;94883.47;5065569;28;20801;-68
2022/08/07 05:53:10;;;;;;;10.93;8.27;;;;;;;24.15;93.10;94880.34;5070557;28;20048;-68
2022/08/07 05:55:59;;;;;;;10.73;6.53;;;;;;;24.26;93.19;94885.34;5060488;28;20040;-68
2022/08/07 05:58:35;;;;;;;9.30;7.28;;;;;;;24.40;92.77;94880.63;5095667;27;20075;-69
2022/08/07 06:01:10;;;;;;;11.20;7.82;;;;;;;24.50;93.11;94890.91;5056264;28;20033;-68
2022/08/07 06:03:47;;;;;;;9.88;8.13;;;;;;;24.51;92.89;94887.16;5063809;28;20714;-68
2022/08/07 06:06:28;;;;;;;10.05;8.20;;;;;;;24.40;93.94;94891.25;5090549;27;20060;-68
2022/08/07 06:09:03;;;;;;;9.65;7.80;;;;;;;24.49;94.28;94894.69;5064567;28;20054;-69
2022/08/07 06:11:35;;;;;;;10.68;7.32;;;;;;;24.42;92.23;94894.38;5052522;28;20139;-68
2022/08/07 06:14:04;;;;;;;12.13;8.25;;;;;;;24.48;91.77;94898.41;5062239;28;20048;-68
2022/08/07 06:16:48;;;;;;;8.63;7.32;;;;;;;24.73;92.43;94901.34;5062574;28;20534;-68
2022/08/07 06:19:23;;;;;;;10.20;7.30;;;;;;;24.81;91.64;94900.53;5058995;28;20053;-68
2022/08/07 06:22:10;;;;;;;7.72;6.00;;;;;;;24.70;92.08;94904.66;5061445;28;20040;-68
2022/08/07 06:25:00;;;;;;;9.32;6.97;;;;;;;24.80;92.15;94904.31;5062046;28;20059;-68
2022/08/07 06:27:29;;;;;;;9.10;7.18;;;;;;;24.95;91.35;94905.66;5096355;27;20133;-66
2022/08/07 06:30:16;;;;;;;9.88;7.30;;;;;;;25.00;90.96;94903.59;5056064;28;20185;-67
2022/08/07 06:33:05;;;;;;;10.95;7.32;;;;;;;25.28;91.32;94897.84;5048716;28;20048;-66
2022/08/07 06:35:44;;;;;;;8.13;7.25;;;;;;;25.33;89.09;94897.63;5064866;28;20041;-66
2022/08/07 06:38:31;;;;;;;8.73;6.97;;;;;;;25.43;82.85;94904.47;5061267;28;20731;-67
2022/08/07 06:41:04;;;;;;;10.35;7.15;;;;;;;25.61;80.49;94905.16;5059737;28;20060;-67
2022/08/07 06:43:39;;;;;;;6.88;6.05;;;;;;;25.74;76.79;94904.09;5095124;27;20603;-66
2022/08/07 06:46:17;;;;;;;9.18;6.43;;;;;;;25.76;76.77;94901.88;5059330;28;20505;-66
2022/08/07 06:48:57;;;;;;;13.85;10.30;;;;;;;25.86;76.42;94902.63;5064002;28;20048;-67
2022/08/07 06:51:30;;;;;;;8.73;7.07;;;;;;;26.10;75.02;94902.72;5057346;28;20033;-67
2022/08/07 06:54:04;;;;;;;10.10;6.65;;;;;;;26.22;72.37;94898.56;5054903;28;20041;-66
2022/08/07 06:56:54;;;;;;;11.50;7.07;;;;;;;26.30;71.01;94908.38;5062432;28;20038;-66
2022/08/07 06:59:32;;;;;;;17.92;7.97;;;;;;;26.44;71.72;94908.84;5061139;28;20041;-67
2022/08/07 07:02:24;;;;;;;8.90;6.75;;;;;;;26.41;68.69;94898.81;5053674;28;20036;-67
2022/08/07 07:05:12;;;;;;;8.45;7.15;;;;;;;26.46;67.80;94901.28;5057796;28;20056;-67
2022/08/07 07:07:59;;;;;;;11.73;7.28;;;;;;;26.40;68.75;94913.28;5060648;28;20054;-67
2022/08/07 07:10:34;;;;;;;11.25;7.95;;;;;;;26.40;68.86;94918.63;5061981;28;20712;-67
2022/08/07 07:13:18;;;;;;;14.10;9.70;;;;;;;26.54;67.42;94914.88;5077716;28;20052;-67
2022/08/07 07:16:16;;;;;;;9.55;8.20;;;;;;;26.44;67.73;94903.50;5067010;28;20056;-66
2022/08/07 07:18:53;;;;;;;11.73;8.73;;;;;;;26.42;66.90;94915.66;5068914;28;20086;-67
2022/08/07 07:21:25;;;;;;;15.23;10.63;;;;;;;26.44;67.70;94914.19;5057369;28;20052;-66
2022/08/07 07:24:09;;;;;;;12.18;10.02;;;;;;;26.56;65.72;94904.63;5070795;28;20056;-67
2022/08/07 07:26:43;;;;;;;13.77;10.88;;;;;;;26.75;65.62;94904.94;5058731;28;20044;-66
2022/08/07 07:29:21;;;;;;;18.48;11.70;;;;;;;26.93;63.43;94896.72;5068949;28;20123;-67
2022/08/07 07:32:12;;;;;;;14.27;11.05;;;;;;;27.23;63.00;94908.72;5061662;28;20162;-68
2022/08/07 07:34:44;;;;;;;12.13;10.43;;;;;;;27.37;61.31;94907.63;5057919;28;20060;-67
2022/08/07 07:37:12;;;;;;;13.70;11.13;;;;;;;27.43;60.79;94914.31;5070662;27;20044;-66
2022/08/07 07:40:05;;;;;;;11.32;9.98;;;;;;;27.54;59.32;94906.63;5071265;28;20042;-67
2022/08/07 07:42:43;;;;;;;12.65;9.50;;;;;;;27.57;58.89;94912.06;5078504;28;20048;-68
2022/08/07 07:45:24;;;;;;;14.68;10.65;;;;;;;27.73;60.18;94906.81;5070510;28;20064;-67
2022/08/07 07:48:15;;;;;;;10.18;8.75;;;;;;;27.91;58.93;94912.69;5066263;27;20052;-67
2022/08/07 07:51:03;;;;;;;11.90;9.38;;;;;;;27.93;56.69;94921.16;5072953;28;20040;-67
2022/08/07 07:53:41;;;;;;;9.80;8.15;;;;;;;28.08;58.87;94929.59;5070395;28;20049;-67
2022/08/07 07:56:20;;;;;;;11.95;8.70;;;;;;;28.34;57.35;94935.28;5072200;28;20040;-67
2022/08/07 07:58:59;;;;;;;10.38;8.30;;;;;;;28.34;55.31;94935.28;5073620;28;20539;-67
2022/08/07 08:01:30;;;;;;;13.30;8.05;;;;;;;28.31;55.89;94935.19;5067636;28;20766;-67
2022/08/07 08:04:18;;;;;;;9.18;7.90;;;;;;;28.47;53.50;94935.19;5065622;28;20539;-67
2022/08/07 08:06:52;;;;;;;12.95;8.07;;;;;;;28.58;54.96;94938.97;5068034;28;20048;-67
2022/08/07 08:09:23;;;;;;;9.95;7.80;;;;;;;28.68;53.98;94943.81;5067210;28;20082;-67
2022/08/07 08:11:56;;;;;;;15.95;9.23;;;;;;;28.54;54.50;94927.38;5070681;28;20047;-67
2022/08/07 08:14:34;;;;;;;13.48;8.40;;;;;;;28.71;54.93;94937.78;5067217;28;20146;-67
2022/08/07 08:17:06;;;;;;;12.45;8.52;;;;;;;28.60;54.04;94947.44;5067072;28;20044;-67
2022/08/07 08:20:06;;;;;;;12.30;8.32;;;;;;;28.74;51.82;94949.72;5063977;28;20041;-67
2022/08/07 08:28:38;;;;;;;8.50;6.57;;;;;;;28.07;51.74;94928.00;5068245;28;20552;-67
2022/08/07 08:31:16;;;;;;;10.73;7.78;;;;;;;27.83;53.14;94943.00;5066112;28;20137;-67
2022/08/07 08:34:05;;;;;;;9.32;7.32;;;;;;;27.99;54.00;94941.19;5067028;28;20047;-67
2022/08/07 08:36:35;;;;;;;13.57;7.82;;;;;;;28.12;53.67;94944.59;5066977;28;20163;-67
2022/08/07 08:39:07;;;;;;;8.63;7.25;;;;;;;28.10;52.79;94936.13;5072745;28;20113;-67
2022/08/07 08:41:46;;;;;;;9.35;6.53;;;;;;;28.42;52.11;94947.72;5065253;28;20706;-67
2022/08/07 08:44:29;;;;;;;8.70;6.40;;;;;;;28.44;51.87;94954.66;5067195;28;20048;-67
2022/08/07 08:47:11;;;;;;;7.72;6.90;;;;;;;28.37;51.48;94945.28;5066073;28;20739;-67
2022/08/07 08:49:51;;;;;;;7.97;6.60;;;;;;;28.40;52.00;94955.31;5069914;28;20139;-67
2022/08/07 08:52:55;;;;;;;8.73;6.72;;;;;;;28.57;50.26;94959.63;5064849;28;20125;-67
2022/08/07 08:55:35;;;;;;;9.40;6.57;;;;;;;28.49;51.54;94959.75;5071062;28;20057;-67
2022/08/07 08:58:35;;;;;;;10.38;6.60;;;;;;;28.52;51.06;94961.75;5068531;28;20736;-67
2022/08/07 09:01:16;;;;;;;7.68;6.03;;;;;;;28.65;49.99;94955.25;5068854;28;20044;-67
2022/08/07 09:03:48;;;;;;;11.15;7.22;;;;;;;28.70;50.56;94955.00;5064019;28;20036;-67
2022/08/07 09:06:35;;;;;;;10.05;7.15;;;;;;;29.00;49.68;94951.88;5070005;28;20042;-67
2022/08/07 09:09:23;;;;;;;6.57;5.55;;;;;;;29.10;49.00;94953.25;5064406;28;20048;-66
2022/08/07 09:12:20;;;;;;;7.30;5.97;;;;;;;29.31;47.40;94947.66;5068652;28;20704;-67
2022/08/07 09:15:38;;;;;;;6.20;5.47;;;;;;;29.66;47.72;94952.28;5067386;28;20067;-67
2022/08/07 09:18:32;;;;;;;6.35;5.65;;;;;;;30.00;45.31;94949.94;5070429;28;20622;-67
2022/08/07 09:21:30;;;;;;;7.95;5.47;;;;;;;30.27;43.85;94934.75;5063499;28;20594;-66
2022/08/07 09:24:32;;;;;;;;;;;;;;;30.68;43.98;94925.19;5069437;28;20047;-67
2022/08/07 09:27:29;;;;;;;8.77;6.13;;;;;;;30.94;43.11;94926.41;5071387;28;20395;-67
2022/08/07 09:30:08;;;;;;;6.00;5.18;;;;;;;31.32;41.12;94924.69;5064349;28;20098;-67
2022/08/07 09:32:53;;;;;;;7.88;5.20;;;;;;;31.27;40.29;94916.91;5065914;28;20127;-67
2022/08/07 09:35:45;;;;;;;8.15;5.88;;;;;;;31.34;41.01;94927.78;5064978;28;20059;-67
2022/08/07 09:38:38;;;;;;;9.13;5.00;;;;;;;31.06;40.14;94931.59;5067735;28;20040;-67
2022/08/07 09:41:35;;;;;;;9.60;5.03;;;;;;;31.10;40.87;94922.78;5065335;28;20047;-67
2022/08/07 09:44:25;;;;;;;6.72;5.05;;;;;;;31.47;41.36;94927.56;5052530;28;20071;-67
2022/08/07 09:47:24;;;;;;;7.85;5.93;;;;;;;31.42;41.00;94924.06;5069510;28;20043;-67
2022/08/07 09:50:45;;;;;;;14.00;5.38;;;;;;;31.49;41.92;94928.00;5066229;28;20067;-67
2022/08/07 09:53:14;;;;;;;8.95;5.55;;;;;;;31.53;40.10;94934.22;5065060;28;20052;-68
2022/08/07 09:55:47;;;;;;;5.82;4.95;;;;;;;31.72;40.27;94931.41;5067718;28;20048;-67
2022/08/07 09:58:59;;;;;;;6.47;5.13;;;;;;;31.71;40.09;94918.31;5062686;28;20051;-67
2022/08/07 10:02:10;;;;;;;9.95;6.05;;;;;;;31.81;40.12;94934.59;5060208;28;20546;-67
2022/08/07 10:05:14;;;;;;;9.43;6.32;;;;;;;32.05;39.42;94911.06;5057437;28;20612;-67
2022/08/07 10:07:56;;;;;;;6.65;5.45;;;;;;;32.12;39.52;94908.47;5059862;28;20086;-68
2022/08/07 10:10:52;;;;;;;8.45;5.22;;;;;;;31.78;37.07;94903.03;5064225;28;20102;-67
2022/08/07 10:13:57;;;;;;;6.45;4.88;;;;;;;31.06;38.97;94912.78;5055704;28;20106;-68
2022/08/07 10:16:52;;;;;;;6.85;5.70;;;;;;;30.83;40.88;94903.91;5059765;28;20137;-67
2022/08/07 10:19:58;;;;;;;6.90;5.75;;;;;;;30.77;40.32;94910.72;5059688;28;20074;-68
2022/08/07 10:22:58;;;;;;;7.18;6.00;;;;;;;31.19;40.96;94904.50;5035930;28;20047;-68
2022/08/07 10:25:48;;;;;;;8.52;5.38;;;;;;;31.98;39.52;94913.66;5061095;28;20051;-68
2022/08/07 10:28:49;;;;;;;8.93;6.18;;;;;;;32.07;38.57;94902.63;5058866;28;21078;-68
2022/08/07 10:31:39;;;;;;;6.70;6.03;;;;;;;32.50;38.91;94908.47;5076664;28;20776;-68
2022/08/07 10:34:39;;;;;;;10.80;5.67;;;;;;;33.04;36.76;94919.75;5054786;28;20072;-68
2022/08/07 10:37:40;;;;;;;6.07;5.25;;;;;;;32.94;36.57;94908.53;5064150;28;20071;-68
2022/08/07 10:40:41;;;;;;;7.22;5.70;;;;;;;32.68;37.10;94914.06;5055297;28;20048;-68
2022/08/07 10:43:26;;;;;;;9.95;6.20;;;;;;;32.10;37.50;94916.13;5063387;28;20040;-68
2022/08/07 10:46:08;;;;;;;8.70;5.97;;;;;;;31.74;38.62;94917.59;5066609;28;20054;-68
2022/08/07 10:49:03;;;;;;;8.13;5.82;;;;;;;31.35;39.53;94907.81;5065549;28;20052;-68
2022/08/07 10:51:55;;;;;;;8.23;6.03;;;;;;;31.11;40.42;94918.97;5062177;28;20049;-68
2022/08/07 10:54:45;;;;;;;6.75;6.03;;;;;;;30.99;42.03;94928.78;5067106;28;20051;-69
2022/08/07 10:57:45;;;;;;;8.02;6.20;;;;;;;30.78;41.36;94917.66;5060389;28;20044;-68
2022/08/07 11:00:26;;;;;;;9.10;6.30;;;;;;;30.87;42.38;94918.19;5065866;28;20111;-68
2022/08/07 11:03:25;;;;;;;11.15;6.50;;;;;;;31.55;41.08;94918.50;5067728;28;20596;-69
2022/08/07 11:06:21;;;;;;;7.55;6.03;;;;;;;32.44;39.08;94910.72;5059002;28;20049;-68
2022/08/07 11:09:08;;;;;;;8.90;6.45;;;;;;;33.12;37.54;94934.88;5068353;28;20508;-67
2022/08/07 11:12:00;;;;;;;6.30;4.82;;;;;;;32.27;37.33;94927.47;5058744;28;20043;-67
2022/08/07 11:14:42;;;;;;;8.48;6.18;;;;;;;32.03;39.48;94929.50;5062426;28;20040;-68
2022/08/07 11:17:51;;;;;;;7.15;5.50;;;;;;;32.43;37.66;94919.97;5063966;28;20143;-67
2022/08/07 11:20:34;;;;;;;5.72;5.10;;;;;;;32.44;38.13;94916.13;5062142;28;20182;-68
2022/08/07 11:23:43;;;;;;;6.20;5.60;;;;;;;33.09;36.62;94914.03;5061679;28;20964;-69
2022/08/07 11:26:30;;;;;;;8.43;6.38;;;;;;;34.06;36.19;94912.69;5063479;28;20036;-68
2022/08/07 11:29:09;;;;;;;10.55;6.35;;;;;;;34.23;34.81;94921.28;5067043;28;20154;-67
2022/08/07 11:31:57;;;;;;;8.85;6.03;;;;;;;33.70;34.53;94917.94;5060217;28;20067;-68
2022/08/07 11:34:37;;;;;;;6.43;5.63;;;;;;;33.18;35.72;94928.00;5061648;28;20049;-68
2022/08/07 11:37:26;;;;;;;7.00;6.00;;;;;;;32.75;36.61;94931.09;5064752;28;20037;-68
2022/08/07 11:40:24;;;;;;;7.25;5.75;;;;;;;32.34;37.49;94916.78;5070491;28;20116;-68
2022/08/07 11:43:03;;;;;;;7.53;5.80;;;;;;;31.98;37.66;94917.13;5059256;28;20174;-67
2022/08/07 11:46:11;;;;;;;6.38;5.55;;;;;;;31.69;38.47;94926.75;5072465;28;20859;-68
2022/08/07 11:49:19;;;;;;;7.43;5.72;;;;;;;31.50;38.95;94918.81;5061096;28;20149;-68
2022/08/07 11:52:33;;;;;;;6.45;5.78;;;;;;;32.02;39.48;94922.56;5061750;28;20706;-67
2022/08/07 11:55:32;;;;;;;6.30;5.28;;;;;;;31.83;39.73;94921.53;5060521;28;20047;-67
2022/08/07 11:58:56;;;;;;;8.63;5.10;;;;;;;31.92;39.36;94931.28;5063796;28;20032;-67
2022/08/07 12:01:55;;;;;;;7.55;6.72;;;;;;;31.81;39.48;94929.22;5062873;28;20063;-67
2022/08/07 12:04:46;;;;;;;8.60;6.78;;;;;;;31.54;40.40;94919.63;5060929;28;20044;-68
2022/08/07 12:07:22;;;;;;;12.00;6.78;;;;;;;31.50;40.67;94916.13;5064022;28;20040;-68
2022/08/07 12:10:23;;;;;;;7.55;6.20;;;;;;;31.64;40.60;94902.84;5061039;28;20714;-68
2022/08/07 12:13:01;;;;;;;7.65;6.07;;;;;;;32.07;39.90;94903.41;5061491;28;20163;-68
2022/08/07 12:15:51;;;;;;;11.63;6.10;;;;;;;32.64;40.07;94902.47;5058567;28;20860;-68
2022/08/07 12:19:11;;;;;;;8.38;5.72;;;;;;;33.64;37.39;94897.84;5065159;28;20039;-66
2022/08/07 12:21:54;;;;;;;6.03;5.00;;;;;;;34.30;33.94;94905.06;5044770;28;20056;-66
2022/08/07 12:28:43;;;;;;;6.13;4.75;;;;;;;35.23;31.97;94909.84;5061959;28;20171;-66
2022/08/07 12:31:46;;;;;;;5.72;5.13;;;;;;;35.06;32.38;94900.56;5066554;28;20054;-66
2022/08/07 12:34:37;;;;;;;5.63;5.00;;;;;;;34.51;33.68;94903.59;5068145;28;20043;-65
2022/08/07 12:37:08;;;;;;;6.13;5.45;;;;;;;34.15;34.48;94908.88;5062102;28;20862;-66
2022/08/07 12:39:51;;;;;;;8.93;5.97;;;;;;;34.23;34.08;94910.47;5068361;28;20048;-65
2022/08/07 12:42:25;;;;;;;6.63;5.95;;;;;;;34.61;34.23;94897.41;5066782;28;20040;-66
2022/08/07 12:44:58;;;;;;;6.15;5.40;;;;;;;34.17;33.48;94890.34;5067703;28;20847;-65
2022/08/07 12:47:41;;;;;;;5.97;5.35;;;;;;;33.55;35.19;94894.69;5064656;28;20954;-65
2022/08/07 12:50:19;;;;;;;9.85;5.78;;;;;;;33.27;35.61;94890.66;5065666;28;20102;-66